sensor_id;sensor_type;location;lat;lon;timestamp;temperature;humidity
25438;DHT22;13364;49.084;9.978;2023-02-12T00:00:40;3.20;99.90
25438;DHT22;13364;49.084;9.978;2023-02-12T00:03:07;3.10;99.90
25438;DHT22;13364;49.084;9.978;2023-02-12T00:05:38;3.30;99.90
25438;DHT22;13364;49.084;9.978;2023-02-12T00:08:05;3.20;99.90
25438;DHT22;13364;49.084;9.978;2023-02-12T00:10:32;3.30;99.90
25438;DHT22;13364;49.084;9.978;2023-02-12T00:12:59;4.80;99.90
25438;DHT22;13364;49.084;9.978;2023-02-12T00:15:26;3.20;99.90
25438;DHT22;13364;49.084;9.978;2023-02-12T00:17:53;3.10;99.90
25438;DHT22;13364;49.084;9.978;2023-02-12T00:20:20;3.00;99.90
25438;DHT22;13364;49.084;9.978;2023-02-12T00:22:47;4.80;99.90
25438;DHT22;13364;49.084;9.978;2023-02-12T00:25:14;3.00;99.90
25438;DHT22;13364;49.084;9.978;2023-02-12T00:27:41;4.50;99.90
25438;DHT22;13364;49.084;9.978;2023-02-12T00:30:08;3.00;99.90
25438;DHT22;13364;49.084;9.978;2023-02-12T00:32:35;3.00;99.90
25438;DHT22;13364;49.084;9.978;2023-02-12T00:35:03;3.00;99.90
25438;DHT22;13364;49.084;9.978;2023-02-12T00:37:29;3.00;99.90
25438;DHT22;13364;49.084;9.978;2023-02-12T00:39:56;3.10;99.90
25438;DHT22;13364;49.084;9.978;2023-02-12T00:42:23;4.80;99.90
25438;DHT22;13364;49.084;9.978;2023-02-12T00:44:50;3.10;99.90
25438;DHT22;13364;49.084;9.978;2023-02-12T00:47:17;4.90;99.90
25438;DHT22;13364;49.084;9.978;2023-02-12T00:49:44;3.10;99.90
25438;DHT22;13364;49.084;9.978;2023-02-12T00:52:11;5.00;99.90
25438;DHT22;13364;49.084;9.978;2023-02-12T00:54:38;3.40;99.90
25438;DHT22;13364;49.084;9.978;2023-02-12T00:57:05;3.20;99.90
25438;DHT22;13364;49.084;9.978;2023-02-12T00:59:32;3.30;99.90
25438;DHT22;13364;49.084;9.978;2023-02-12T01:02:02;5.20;99.90
25438;DHT22;13364;49.084;9.978;2023-02-12T01:04:29;3.30;99.90
25438;DHT22;13364;49.084;9.978;2023-02-12T01:06:55;4.90;99.90
25438;DHT22;13364;49.084;9.978;2023-02-12T01:09:22;3.20;99.90
25438;DHT22;13364;49.084;9.978;2023-02-12T01:11:49;4.70;99.90
25438;DHT22;13364;49.084;9.978;2023-02-12T01:14:16;3.20;99.90
25438;DHT22;13364;49.084;9.978;2023-02-12T01:16:43;3.50;99.90
25438;DHT22;13364;49.084;9.978;2023-02-12T01:19:10;3.10;99.90
25438;DHT22;13364;49.084;9.978;2023-02-12T01:21:38;5.30;99.90
25438;DHT22;13364;49.084;9.978;2023-02-12T01:24:05;3.20;99.90
25438;DHT22;13364;49.084;9.978;2023-02-12T01:26:32;3.10;99.90
25438;DHT22;13364;49.084;9.978;2023-02-12T01:29:00;3.30;99.90
25438;DHT22;13364;49.084;9.978;2023-02-12T01:31:28;4.10;99.90
25438;DHT22;13364;49.084;9.978;2023-02-12T01:33:56;3.20;99.90
25438;DHT22;13364;49.084;9.978;2023-02-12T01:36:25;5.90;99.90
25438;DHT22;13364;49.084;9.978;2023-02-12T01:38:52;3.20;99.90
25438;DHT22;13364;49.084;9.978;2023-02-12T01:41:23;5.10;99.90
25438;DHT22;13364;49.084;9.978;2023-02-12T01:44:11;3.30;99.90
25438;DHT22;13364;49.084;9.978;2023-02-12T01:46:38;3.20;99.90
25438;DHT22;13364;49.084;9.978;2023-02-12T01:49:06;3.20;99.90
25438;DHT22;13364;49.084;9.978;2023-02-12T01:51:34;4.80;99.90
25438;DHT22;13364;49.084;9.978;2023-02-12T01:54:04;3.30;99.90
25438;DHT22;13364;49.084;9.978;2023-02-12T01:56:31;3.20;99.90
25438;DHT22;13364;49.084;9.978;2023-02-12T01:58:58;3.30;99.90
25438;DHT22;13364;49.084;9.978;2023-02-12T02:01:27;4.80;99.90
25438;DHT22;13364;49.084;9.978;2023-02-12T02:04:03;3.30;99.90
25438;DHT22;13364;49.084;9.978;2023-02-12T02:06:32;3.20;99.90
25438;DHT22;13364;49.084;9.978;2023-02-12T02:09:00;3.30;99.90
25438;DHT22;13364;49.084;9.978;2023-02-12T02:11:27;5.80;99.90
25438;DHT22;13364;49.084;9.978;2023-02-12T02:14:12;3.20;99.90
25438;DHT22;13364;49.084;9.978;2023-02-12T02:17:08;5.00;99.90
25438;DHT22;13364;49.084;9.978;2023-02-12T02:22:27;3.20;99.90
25438;DHT22;13364;49.084;9.978;2023-02-12T02:27:39;3.10;99.90
25438;DHT22;13364;49.084;9.978;2023-02-12T02:35:59;3.00;99.90
25438;DHT22;13364;49.084;9.978;2023-02-12T02:41:03;3.20;99.90
25438;DHT22;13364;49.084;9.978;2023-02-12T02:43:34;2.90;99.90
25438;DHT22;13364;49.084;9.978;2023-02-12T02:46:04;3.20;99.90
25438;DHT22;13364;49.084;9.978;2023-02-12T02:48:34;4.00;99.90
25438;DHT22;13364;49.084;9.978;2023-02-12T02:51:03;3.10;99.90
25438;DHT22;13364;49.084;9.978;2023-02-12T02:53:34;5.10;99.90
25438;DHT22;13364;49.084;9.978;2023-02-12T02:56:04;3.00;99.90
25438;DHT22;13364;49.084;9.978;2023-02-12T02:58:38;2.90;99.90
25438;DHT22;13364;49.084;9.978;2023-02-12T03:01:10;3.20;99.90
25438;DHT22;13364;49.084;9.978;2023-02-12T03:03:41;2.90;99.90
25438;DHT22;13364;49.084;9.978;2023-02-12T03:06:15;3.00;99.90
25438;DHT22;13364;49.084;9.978;2023-02-12T03:08:45;3.00;99.90
25438;DHT22;13364;49.084;9.978;2023-02-12T03:11:18;3.30;99.90
25438;DHT22;13364;49.084;9.978;2023-02-12T03:17:01;3.00;99.90
25438;DHT22;13364;49.084;9.978;2023-02-12T03:19:29;3.00;99.90
25438;DHT22;13364;49.084;9.978;2023-02-12T03:22:01;2.20;99.90
25438;DHT22;13364;49.084;9.978;2023-02-12T03:24:40;3.00;99.90
25438;DHT22;13364;49.084;9.978;2023-02-12T03:27:16;3.00;99.90
25438;DHT22;13364;49.084;9.978;2023-02-12T03:29:44;3.00;99.90
25438;DHT22;13364;49.084;9.978;2023-02-12T03:42:32;3.00;99.90
25438;DHT22;13364;49.084;9.978;2023-02-12T03:45:13;4.10;99.90
25438;DHT22;13364;49.084;9.978;2023-02-12T03:48:29;3.10;99.90
25438;DHT22;13364;49.084;9.978;2023-02-12T03:50:35;4.10;99.90
25438;DHT22;13364;49.084;9.978;2023-02-12T03:53:05;3.10;99.90
25438;DHT22;13364;49.084;9.978;2023-02-12T03:55:32;4.60;99.90
25438;DHT22;13364;49.084;9.978;2023-02-12T03:58:02;3.10;99.90
25438;DHT22;13364;49.084;9.978;2023-02-12T04:00:32;4.90;99.90
25438;DHT22;13364;49.084;9.978;2023-02-12T04:02:59;3.00;99.90
25438;DHT22;13364;49.084;9.978;2023-02-12T04:05:26;3.60;99.90
25438;DHT22;13364;49.084;9.978;2023-02-12T04:07:54;3.10;99.90
25438;DHT22;13364;49.084;9.978;2023-02-12T04:10:23;4.80;99.90
25438;DHT22;13364;49.084;9.978;2023-02-12T04:12:58;3.10;99.90
25438;DHT22;13364;49.084;9.978;2023-02-12T04:18:18;2.90;99.90
25438;DHT22;13364;49.084;9.978;2023-02-12T04:23:46;2.80;99.90
25438;DHT22;13364;49.084;9.978;2023-02-12T04:26:16;2.70;99.90
25438;DHT22;13364;49.084;9.978;2023-02-12T04:36:21;2.70;99.90
25438;DHT22;13364;49.084;9.978;2023-02-12T04:38:54;3.10;99.90
25438;DHT22;13364;49.084;9.978;2023-02-12T04:41:24;2.70;99.90
25438;DHT22;13364;49.084;9.978;2023-02-12T04:43:51;2.80;99.90
25438;DHT22;13364;49.084;9.978;2023-02-12T04:46:18;2.70;99.90
25438;DHT22;13364;49.084;9.978;2023-02-12T04:48:55;4.40;99.90
25438;DHT22;13364;49.084;9.978;2023-02-12T04:51:23;2.70;99.90
25438;DHT22;13364;49.084;9.978;2023-02-12T04:53:50;4.30;99.90
25438;DHT22;13364;49.084;9.978;2023-02-12T04:56:17;3.20;99.90
25438;DHT22;13364;49.084;9.978;2023-02-12T04:58:44;5.10;99.90
25438;DHT22;13364;49.084;9.978;2023-02-12T05:01:11;3.00;99.90
25438;DHT22;13364;49.084;9.978;2023-02-12T05:03:38;3.40;99.90
25438;DHT22;13364;49.084;9.978;2023-02-12T05:06:06;3.60;99.90
25438;DHT22;13364;49.084;9.978;2023-02-12T05:08:33;2.50;99.90
25438;DHT22;13364;49.084;9.978;2023-02-12T05:11:04;3.30;99.90
25438;DHT22;13364;49.084;9.978;2023-02-12T05:13:32;2.50;99.90
25438;DHT22;13364;49.084;9.978;2023-02-12T05:15:59;2.50;99.90
25438;DHT22;13364;49.084;9.978;2023-02-12T05:18:26;4.40;99.90
25438;DHT22;13364;49.084;9.978;2023-02-12T05:20:54;3.10;99.90
25438;DHT22;13364;49.084;9.978;2023-02-12T05:23:21;3.50;99.90
25438;DHT22;13364;49.084;9.978;2023-02-12T05:25:48;2.50;99.90
25438;DHT22;13364;49.084;9.978;2023-02-12T05:28:15;3.70;99.90
25438;DHT22;13364;49.084;9.978;2023-02-12T05:30:41;0.70;99.90
25438;DHT22;13364;49.084;9.978;2023-02-12T05:33:09;4.40;99.90
25438;DHT22;13364;49.084;9.978;2023-02-12T05:35:35;3.20;99.90
25438;DHT22;13364;49.084;9.978;2023-02-12T05:38:02;5.20;99.90
25438;DHT22;13364;49.084;9.978;2023-02-12T05:40:29;2.50;99.90
25438;DHT22;13364;49.084;9.978;2023-02-12T05:42:56;4.50;99.90
25438;DHT22;13364;49.084;9.978;2023-02-12T05:45:23;2.90;99.90
25438;DHT22;13364;49.084;9.978;2023-02-12T05:47:54;2.50;99.90
25438;DHT22;13364;49.084;9.978;2023-02-12T05:50:21;2.70;99.90
25438;DHT22;13364;49.084;9.978;2023-02-12T05:53:00;4.50;99.90
25438;DHT22;13364;49.084;9.978;2023-02-12T05:55:27;2.60;99.90
25438;DHT22;13364;49.084;9.978;2023-02-12T06:00:49;2.50;99.90
25438;DHT22;13364;49.084;9.978;2023-02-12T06:03:16;3.20;99.90
25438;DHT22;13364;49.084;9.978;2023-02-12T06:05:48;4.60;99.90
25438;DHT22;13364;49.084;9.978;2023-02-12T06:08:15;2.60;99.90
25438;DHT22;13364;49.084;9.978;2023-02-12T06:10:42;4.70;99.90
25438;DHT22;13364;49.084;9.978;2023-02-12T06:13:09;2.70;99.90
25438;DHT22;13364;49.084;9.978;2023-02-12T06:15:36;4.20;99.90
25438;DHT22;13364;49.084;9.978;2023-02-12T06:18:03;2.60;99.90
25438;DHT22;13364;49.084;9.978;2023-02-12T06:20:30;2.60;99.90
25438;DHT22;13364;49.084;9.978;2023-02-12T06:22:57;2.60;99.90
25438;DHT22;13364;49.084;9.978;2023-02-12T06:25:24;4.30;99.90
25438;DHT22;13364;49.084;9.978;2023-02-12T06:27:50;2.80;99.90
25438;DHT22;13364;49.084;9.978;2023-02-12T06:30:17;4.90;99.90
25438;DHT22;13364;49.084;9.978;2023-02-12T06:32:47;2.60;99.90
25438;DHT22;13364;49.084;9.978;2023-02-12T06:35:15;4.90;99.90
25438;DHT22;13364;49.084;9.978;2023-02-12T06:37:41;2.70;99.90
25438;DHT22;13364;49.084;9.978;2023-02-12T06:40:08;2.70;99.90
25438;DHT22;13364;49.084;9.978;2023-02-12T06:42:35;2.70;99.90
25438;DHT22;13364;49.084;9.978;2023-02-12T06:45:02;2.70;99.90
25438;DHT22;13364;49.084;9.978;2023-02-12T06:47:29;2.70;99.90
25438;DHT22;13364;49.084;9.978;2023-02-12T06:49:56;2.80;99.90
25438;DHT22;13364;49.084;9.978;2023-02-12T06:52:23;4.90;99.90
25438;DHT22;13364;49.084;9.978;2023-02-12T06:54:50;2.70;99.90
25438;DHT22;13364;49.084;9.978;2023-02-12T06:57:17;4.90;99.90
25438;DHT22;13364;49.084;9.978;2023-02-12T06:59:45;3.60;99.90
25438;DHT22;13364;49.084;9.978;2023-02-12T07:02:12;4.90;99.90
25438;DHT22;13364;49.084;9.978;2023-02-12T07:04:39;3.70;99.90
25438;DHT22;13364;49.084;9.978;2023-02-12T07:07:06;4.70;99.90
25438;DHT22;13364;49.084;9.978;2023-02-12T07:09:33;2.80;99.90
25438;DHT22;13364;49.084;9.978;2023-02-12T07:12:00;4.30;99.90
25438;DHT22;13364;49.084;9.978;2023-02-12T07:14:27;2.90;99.90
25438;DHT22;13364;49.084;9.978;2023-02-12T07:16:54;3.50;99.90
25438;DHT22;13364;49.084;9.978;2023-02-12T07:19:23;2.70;99.90
25438;DHT22;13364;49.084;9.978;2023-02-12T07:21:50;4.30;99.90
25438;DHT22;13364;49.084;9.978;2023-02-12T07:24:17;2.60;99.90
25438;DHT22;13364;49.084;9.978;2023-02-12T07:26:43;4.70;99.90
25438;DHT22;13364;49.084;9.978;2023-02-12T07:29:10;3.10;99.90
25438;DHT22;13364;49.084;9.978;2023-02-12T07:31:38;4.00;99.90
25438;DHT22;13364;49.084;9.978;2023-02-12T07:34:05;2.60;99.90
25438;DHT22;13364;49.084;9.978;2023-02-12T07:36:32;3.90;99.90
25438;DHT22;13364;49.084;9.978;2023-02-12T07:38:59;2.60;99.90
25438;DHT22;13364;49.084;9.978;2023-02-12T07:41:28;4.50;99.90
25438;DHT22;13364;49.084;9.978;2023-02-12T07:43:56;2.90;99.90
25438;DHT22;13364;49.084;9.978;2023-02-12T07:46:25;3.60;99.90
25438;DHT22;13364;49.084;9.978;2023-02-12T07:48:56;3.80;99.90
25438;DHT22;13364;49.084;9.978;2023-02-12T07:51:23;3.90;99.90
25438;DHT22;13364;49.084;9.978;2023-02-12T07:53:50;2.60;99.90
25438;DHT22;13364;49.084;9.978;2023-02-12T07:56:18;5.20;99.90
25438;DHT22;13364;49.084;9.978;2023-02-12T07:58:46;2.60;99.90
25438;DHT22;13364;49.084;9.978;2023-02-12T08:01:20;4.70;99.90
25438;DHT22;13364;49.084;9.978;2023-02-12T08:03:48;2.60;99.90
25438;DHT22;13364;49.084;9.978;2023-02-12T08:06:18;4.70;99.90
25438;DHT22;13364;49.084;9.978;2023-02-12T08:08:46;2.60;99.90
25438;DHT22;13364;49.084;9.978;2023-02-12T08:11:13;5.00;99.90
25438;DHT22;13364;49.084;9.978;2023-02-12T08:13:40;3.80;99.90
25438;DHT22;13364;49.084;9.978;2023-02-12T08:16:09;3.90;99.90
25438;DHT22;13364;49.084;9.978;2023-02-12T08:18:36;5.10;99.90
25438;DHT22;13364;49.084;9.978;2023-02-12T08:21:07;2.90;99.90
25438;DHT22;13364;49.084;9.978;2023-02-12T08:23:34;2.80;99.90
25438;DHT22;13364;49.084;9.978;2023-02-12T08:26:11;3.10;99.90
25438;DHT22;13364;49.084;9.978;2023-02-12T08:28:39;4.40;99.90
25438;DHT22;13364;49.084;9.978;2023-02-12T08:31:08;3.70;99.90
25438;DHT22;13364;49.084;9.978;2023-02-12T08:33:35;4.60;99.90
25438;DHT22;13364;49.084;9.978;2023-02-12T08:36:09;3.10;99.90
25438;DHT22;13364;49.084;9.978;2023-02-12T08:38:37;3.10;99.90
25438;DHT22;13364;49.084;9.978;2023-02-12T08:41:08;3.10;99.90
25438;DHT22;13364;49.084;9.978;2023-02-12T08:43:36;6.00;99.90
25438;DHT22;13364;49.084;9.978;2023-02-12T08:46:05;3.40;99.90
25438;DHT22;13364;49.084;9.978;2023-02-12T08:48:32;3.30;99.90
25438;DHT22;13364;49.084;9.978;2023-02-12T08:51:03;3.50;99.90
25438;DHT22;13364;49.084;9.978;2023-02-12T08:53:30;3.50;99.90
25438;DHT22;13364;49.084;9.978;2023-02-12T08:55:57;3.60;99.90
25438;DHT22;13364;49.084;9.978;2023-02-12T08:58:24;5.20;99.90
25438;DHT22;13364;49.084;9.978;2023-02-12T09:00:51;3.60;99.90
25438;DHT22;13364;49.084;9.978;2023-02-12T09:03:18;4.70;99.90
25438;DHT22;13364;49.084;9.978;2023-02-12T09:05:46;3.80;99.90
25438;DHT22;13364;49.084;9.978;2023-02-12T09:08:13;3.80;99.90
25438;DHT22;13364;49.084;9.978;2023-02-12T09:10:40;3.90;99.90
25438;DHT22;13364;49.084;9.978;2023-02-12T09:13:08;3.90;99.90
25438;DHT22;13364;49.084;9.978;2023-02-12T09:18:23;4.00;99.90
25438;DHT22;13364;49.084;9.978;2023-02-12T09:20:51;4.10;99.90
25438;DHT22;13364;49.084;9.978;2023-02-12T09:23:18;4.10;99.90
25438;DHT22;13364;49.084;9.978;2023-02-12T09:29:19;4.20;99.90
25438;DHT22;13364;49.084;9.978;2023-02-12T09:31:47;4.30;99.90
25438;DHT22;13364;49.084;9.978;2023-02-12T09:34:14;4.20;99.90
25438;DHT22;13364;49.084;9.978;2023-02-12T09:36:41;4.30;99.90
25438;DHT22;13364;49.084;9.978;2023-02-12T09:39:08;6.60;99.90
25438;DHT22;13364;49.084;9.978;2023-02-12T09:47:16;4.60;99.90
25438;DHT22;13364;49.084;9.978;2023-02-12T09:52:20;4.70;99.90
25438;DHT22;13364;49.084;9.978;2023-02-12T09:54:48;4.70;99.90
25438;DHT22;13364;49.084;9.978;2023-02-12T10:00:53;4.90;99.90
25438;DHT22;13364;49.084;9.978;2023-02-12T10:03:19;7.70;99.90
25438;DHT22;13364;49.084;9.978;2023-02-12T10:05:51;5.20;99.90
25438;DHT22;13364;49.084;9.978;2023-02-12T10:08:40;5.30;99.90
25438;DHT22;13364;49.084;9.978;2023-02-12T10:11:23;5.40;99.90
25438;DHT22;13364;49.084;9.978;2023-02-12T10:13:58;5.50;99.90
25438;DHT22;13364;49.084;9.978;2023-02-12T10:18:59;7.70;99.90
25438;DHT22;13364;49.084;9.978;2023-02-12T10:27:07;6.10;99.90
25438;DHT22;13364;49.084;9.978;2023-02-12T10:29:38;6.10;99.90
25438;DHT22;13364;49.084;9.978;2023-02-12T10:32:16;6.20;99.90
25438;DHT22;13364;49.084;9.978;2023-02-12T10:34:45;6.40;99.90
25438;DHT22;13364;49.084;9.978;2023-02-12T10:40:28;6.40;99.90
25438;DHT22;13364;49.084;9.978;2023-02-12T10:42:59;6.80;99.90
25438;DHT22;13364;49.084;9.978;2023-02-12T10:47:59;7.20;99.90
25438;DHT22;13364;49.084;9.978;2023-02-12T10:50:32;6.80;99.90
25438;DHT22;13364;49.084;9.978;2023-02-12T10:58:41;7.10;99.90
25438;DHT22;13364;49.084;9.978;2023-02-12T11:03:52;7.30;99.90
25438;DHT22;13364;49.084;9.978;2023-02-12T11:09:26;7.50;99.90
25438;DHT22;13364;49.084;9.978;2023-02-12T11:11:54;7.60;99.90
25438;DHT22;13364;49.084;9.978;2023-02-12T11:14:21;8.10;99.90
25438;DHT22;13364;49.084;9.978;2023-02-12T11:16:55;7.70;99.90
25438;DHT22;13364;49.084;9.978;2023-02-12T11:19:26;7.80;99.90
25438;DHT22;13364;49.084;9.978;2023-02-12T11:22:09;7.70;99.90
25438;DHT22;13364;49.084;9.978;2023-02-12T11:24:40;7.80;99.90
25438;DHT22;13364;49.084;9.978;2023-02-12T11:27:28;7.90;99.90
25438;DHT22;13364;49.084;9.978;2023-02-12T11:30:10;8.00;99.90
25438;DHT22;13364;49.084;9.978;2023-02-12T11:32:38;8.10;99.90
25438;DHT22;13364;49.084;9.978;2023-02-12T11:35:13;8.00;99.90
25438;DHT22;13364;49.084;9.978;2023-02-12T11:37:41;8.00;99.90
25438;DHT22;13364;49.084;9.978;2023-02-12T11:40:17;7.90;99.90
25438;DHT22;13364;49.084;9.978;2023-02-12T11:42:46;8.10;99.90
25438;DHT22;13364;49.084;9.978;2023-02-12T11:45:15;8.10;99.90
25438;DHT22;13364;49.084;9.978;2023-02-12T11:47:43;8.40;99.90
25438;DHT22;13364;49.084;9.978;2023-02-12T11:52:42;8.80;99.90
25438;DHT22;13364;49.084;9.978;2023-02-12T11:55:28;8.80;99.90
25438;DHT22;13364;49.084;9.978;2023-02-12T12:00:33;8.80;99.90
25438;DHT22;13364;49.084;9.978;2023-02-12T12:03:12;8.80;99.90
25438;DHT22;13364;49.084;9.978;2023-02-12T12:05:43;8.80;99.90
25438;DHT22;13364;49.084;9.978;2023-02-12T12:11:24;8.80;99.90
25438;DHT22;13364;49.084;9.978;2023-02-12T12:13:53;8.80;99.90
25438;DHT22;13364;49.084;9.978;2023-02-12T12:16:24;8.70;99.90
25438;DHT22;13364;49.084;9.978;2023-02-12T12:19:16;8.70;99.90
25438;DHT22;13364;49.084;9.978;2023-02-12T12:22:06;8.60;99.90
25438;DHT22;13364;49.084;9.978;2023-02-12T12:24:38;8.60;99.90
25438;DHT22;13364;49.084;9.978;2023-02-12T12:27:11;8.70;99.90
25438;DHT22;13364;49.084;9.978;2023-02-12T12:30:03;8.80;99.90
25438;DHT22;13364;49.084;9.978;2023-02-12T12:32:35;8.90;99.90
25438;DHT22;13364;49.084;9.978;2023-02-12T12:35:04;9.00;99.90
25438;DHT22;13364;49.084;9.978;2023-02-12T12:37:36;9.00;99.90
25438;DHT22;13364;49.084;9.978;2023-02-12T12:51:20;8.80;99.90
25438;DHT22;13364;49.084;9.978;2023-02-12T12:56:44;9.30;99.90
25438;DHT22;13364;49.084;9.978;2023-02-12T13:01:49;9.80;99.90
25438;DHT22;13364;49.084;9.978;2023-02-12T13:09:35;10.50;99.90
25438;DHT22;13364;49.084;9.978;2023-02-12T13:17:28;10.80;99.90
25438;DHT22;13364;49.084;9.978;2023-02-12T13:20:03;11.00;99.90
25438;DHT22;13364;49.084;9.978;2023-02-12T13:27:36;11.30;99.90
25438;DHT22;13364;49.084;9.978;2023-02-12T13:30:15;11.20;99.90
25438;DHT22;13364;49.084;9.978;2023-02-12T13:32:44;11.20;99.90
25438;DHT22;13364;49.084;9.978;2023-02-12T13:35:19;11.00;99.90
25438;DHT22;13364;49.084;9.978;2023-02-12T13:37:51;10.80;99.90
25438;DHT22;13364;49.084;9.978;2023-02-12T13:40:22;10.50;99.90
25438;DHT22;13364;49.084;9.978;2023-02-12T13:45:24;10.20;99.90
25438;DHT22;13364;49.084;9.978;2023-02-12T13:56:05;10.30;99.90
25438;DHT22;13364;49.084;9.978;2023-02-12T14:01:07;10.30;99.90
25438;DHT22;13364;49.084;9.978;2023-02-12T14:03:36;10.20;99.90
25438;DHT22;13364;49.084;9.978;2023-02-12T14:06:07;10.30;99.90
25438;DHT22;13364;49.084;9.978;2023-02-12T14:08:35;10.20;99.90
25438;DHT22;13364;49.084;9.978;2023-02-12T14:11:04;10.20;99.90
25438;DHT22;13364;49.084;9.978;2023-02-12T14:13:33;10.10;99.90
25438;DHT22;13364;49.084;9.978;2023-02-12T14:21:49;10.00;99.90
25438;DHT22;13364;49.084;9.978;2023-02-12T14:24:59;9.90;99.90
25438;DHT22;13364;49.084;9.978;2023-02-12T14:27:15;9.90;99.90
25438;DHT22;13364;49.084;9.978;2023-02-12T14:29:59;9.80;99.90
25438;DHT22;13364;49.084;9.978;2023-02-12T14:43:26;9.60;99.90
25438;DHT22;13364;49.084;9.978;2023-02-12T14:45:54;9.70;99.90
25438;DHT22;13364;49.084;9.978;2023-02-12T14:48:38;9.60;99.90
25438;DHT22;13364;49.084;9.978;2023-02-12T14:51:09;9.50;99.90
25438;DHT22;13364;49.084;9.978;2023-02-12T14:53:40;9.50;99.90
25438;DHT22;13364;49.084;9.978;2023-02-12T14:56:07;9.50;99.90
25438;DHT22;13364;49.084;9.978;2023-02-12T14:58:35;9.50;99.90
25438;DHT22;13364;49.084;9.978;2023-02-12T15:01:03;9.60;99.90
25438;DHT22;13364;49.084;9.978;2023-02-12T15:03:42;9.40;99.90
25438;DHT22;13364;49.084;9.978;2023-02-12T15:06:18;9.40;99.90
25438;DHT22;13364;49.084;9.978;2023-02-12T15:08:51;9.20;99.90
25438;DHT22;13364;49.084;9.978;2023-02-12T15:14:03;9.00;99.90
25438;DHT22;13364;49.084;9.978;2023-02-12T15:19:27;8.80;99.90
25438;DHT22;13364;49.084;9.978;2023-02-12T15:21:57;8.70;99.90
25438;DHT22;13364;49.084;9.978;2023-02-12T15:24:24;8.60;99.90
25438;DHT22;13364;49.084;9.978;2023-02-12T15:26:52;8.60;99.90
25438;DHT22;13364;49.084;9.978;2023-02-12T15:29:23;8.50;99.90
25438;DHT22;13364;49.084;9.978;2023-02-12T15:31:52;8.40;99.90
25438;DHT22;13364;49.084;9.978;2023-02-12T15:34:21;8.30;99.90
25438;DHT22;13364;49.084;9.978;2023-02-12T15:36:48;8.30;99.90
25438;DHT22;13364;49.084;9.978;2023-02-12T15:39:20;8.10;99.90
25438;DHT22;13364;49.084;9.978;2023-02-12T15:41:48;8.10;99.90
25438;DHT22;13364;49.084;9.978;2023-02-12T15:49:39;7.60;99.90
25438;DHT22;13364;49.084;9.978;2023-02-12T15:52:20;7.60;99.90
25438;DHT22;13364;49.084;9.978;2023-02-12T15:54:50;7.30;99.90
25438;DHT22;13364;49.084;9.978;2023-02-12T15:57:21;7.30;99.90
25438;DHT22;13364;49.084;9.978;2023-02-12T15:59:56;7.10;99.90
25438;DHT22;13364;49.084;9.978;2023-02-12T16:02:26;7.10;99.90
25438;DHT22;13364;49.084;9.978;2023-02-12T16:04:54;8.20;99.90
25438;DHT22;13364;49.084;9.978;2023-02-12T16:07:22;6.80;99.90
25438;DHT22;13364;49.084;9.978;2023-02-12T16:09:50;7.00;99.90
25438;DHT22;13364;49.084;9.978;2023-02-12T16:12:18;6.80;99.90
25438;DHT22;13364;49.084;9.978;2023-02-12T16:14:47;7.70;99.90
25438;DHT22;13364;49.084;9.978;2023-02-12T16:17:19;6.50;99.90
25438;DHT22;13364;49.084;9.978;2023-02-12T16:19:53;6.40;99.90
25438;DHT22;13364;49.084;9.978;2023-02-12T16:22:20;6.30;99.90
25438;DHT22;13364;49.084;9.978;2023-02-12T16:24:49;8.00;99.90
25438;DHT22;13364;49.084;9.978;2023-02-12T16:27:20;6.10;99.90
25438;DHT22;13364;49.084;9.978;2023-02-12T16:29:49;6.00;99.90
25438;DHT22;13364;49.084;9.978;2023-02-12T16:35:00;5.80;99.90
25438;DHT22;13364;49.084;9.978;2023-02-12T16:37:39;5.80;99.90
25438;DHT22;13364;49.084;9.978;2023-02-12T16:40:09;5.60;99.90
25438;DHT22;13364;49.084;9.978;2023-02-12T16:48:01;5.40;99.90
25438;DHT22;13364;49.084;9.978;2023-02-12T16:50:32;5.30;99.90
25438;DHT22;13364;49.084;9.978;2023-02-12T16:53:01;5.30;99.90
25438;DHT22;13364;49.084;9.978;2023-02-12T16:55:28;7.10;99.90
25438;DHT22;13364;49.084;9.978;2023-02-12T16:57:55;5.00;99.90
25438;DHT22;13364;49.084;9.978;2023-02-12T17:00:22;7.80;99.90
25438;DHT22;13364;49.084;9.978;2023-02-12T17:02:49;4.90;99.90
25438;DHT22;13364;49.084;9.978;2023-02-12T17:05:16;7.20;99.90
25438;DHT22;13364;49.084;9.978;2023-02-12T17:07:44;7.40;99.90
25438;DHT22;13364;49.084;9.978;2023-02-12T17:10:11;5.00;99.90
25438;DHT22;13364;49.084;9.978;2023-02-12T17:12:50;6.30;99.90
25438;DHT22;13364;49.084;9.978;2023-02-12T17:15:27;4.60;99.90
25438;DHT22;13364;49.084;9.978;2023-02-12T17:17:55;6.70;99.90
25438;DHT22;13364;49.084;9.978;2023-02-12T17:20:22;4.50;99.90
25438;DHT22;13364;49.084;9.978;2023-02-12T17:22:49;6.70;99.90
25438;DHT22;13364;49.084;9.978;2023-02-12T17:25:17;4.50;99.90
25438;DHT22;13364;49.084;9.978;2023-02-12T17:27:44;4.40;99.90
25438;DHT22;13364;49.084;9.978;2023-02-12T17:30:14;6.70;99.90
25438;DHT22;13364;49.084;9.978;2023-02-12T17:32:42;4.30;99.90
25438;DHT22;13364;49.084;9.978;2023-02-12T17:38:02;4.70;99.90
25438;DHT22;13364;49.084;9.978;2023-02-12T17:40:29;4.20;99.90
25438;DHT22;13364;49.084;9.978;2023-02-12T17:42:56;6.30;99.90
25438;DHT22;13364;49.084;9.978;2023-02-12T17:45:24;4.10;99.90
25438;DHT22;13364;49.084;9.978;2023-02-12T17:47:51;6.80;99.90
25438;DHT22;13364;49.084;9.978;2023-02-12T17:50:18;4.10;99.90
25438;DHT22;13364;49.084;9.978;2023-02-12T17:52:45;4.00;99.90
25438;DHT22;13364;49.084;9.978;2023-02-12T17:55:12;7.30;99.90
25438;DHT22;13364;49.084;9.978;2023-02-12T17:57:40;4.20;99.90
25438;DHT22;13364;49.084;9.978;2023-02-12T18:00:11;6.20;99.90
25438;DHT22;13364;49.084;9.978;2023-02-12T18:02:38;3.90;99.90
25438;DHT22;13364;49.084;9.978;2023-02-12T18:05:05;6.60;99.90
25438;DHT22;13364;49.084;9.978;2023-02-12T18:07:33;3.90;99.90
25438;DHT22;13364;49.084;9.978;2023-02-12T18:10:00;6.10;99.90
25438;DHT22;13364;49.084;9.978;2023-02-12T18:12:27;3.80;99.90
25438;DHT22;13364;49.084;9.978;2023-02-12T18:14:59;5.30;99.90
25438;DHT22;13364;49.084;9.978;2023-02-12T18:17:26;3.80;99.90
25438;DHT22;13364;49.084;9.978;2023-02-12T18:19:54;6.20;99.90
25438;DHT22;13364;49.084;9.978;2023-02-12T18:22:21;3.60;99.90
25438;DHT22;13364;49.084;9.978;2023-02-12T18:24:48;6.30;99.90
25438;DHT22;13364;49.084;9.978;2023-02-12T18:27:15;3.60;99.90
25438;DHT22;13364;49.084;9.978;2023-02-12T18:33:20;3.40;99.90
25438;DHT22;13364;49.084;9.978;2023-02-12T18:35:57;3.50;99.90
25438;DHT22;13364;49.084;9.978;2023-02-12T18:38:24;3.40;99.90
25438;DHT22;13364;49.084;9.978;2023-02-12T18:40:51;3.40;99.90
25438;DHT22;13364;49.084;9.978;2023-02-12T18:43:18;5.90;99.90
25438;DHT22;13364;49.084;9.978;2023-02-12T18:45:46;3.40;99.90
25438;DHT22;13364;49.084;9.978;2023-02-12T18:48:13;3.30;99.90
25438;DHT22;13364;49.084;9.978;2023-02-12T18:50:40;3.40;99.90
25438;DHT22;13364;49.084;9.978;2023-02-12T18:53:07;5.40;99.90
25438;DHT22;13364;49.084;9.978;2023-02-12T18:55:38;3.20;99.90
25438;DHT22;13364;49.084;9.978;2023-02-12T18:58:05;5.70;99.90
25438;DHT22;13364;49.084;9.978;2023-02-12T19:00:32;3.20;99.90
25438;DHT22;13364;49.084;9.978;2023-02-12T19:02:59;6.00;99.90